createdAt,value
2023-03-07T00:00:21.598Z,5.83
2023-03-07T00:03:07.062Z,4.17
2023-03-07T00:06:06.938Z,5.10
2023-03-07T00:08:54.484Z,5.30
2023-03-07T00:11:42.391Z,4.67
2023-03-07T00:14:30.626Z,5.57
2023-03-07T00:17:16.485Z,5.20
2023-03-07T00:20:04.076Z,5.60
2023-03-07T00:22:49.565Z,5.07
2023-03-07T00:25:35.149Z,6.50
2023-03-07T00:28:20.600Z,4.50
2023-03-07T00:31:09.234Z,4.70
2023-03-07T00:33:54.831Z,5.40
2023-03-07T00:36:42.684Z,5.27
2023-03-07T00:39:28.593Z,5.60
2023-03-07T00:42:14.369Z,5.33
2023-03-07T00:45:00.405Z,5.87
2023-03-07T00:47:45.679Z,5.70
2023-03-07T00:50:31.202Z,4.60
2023-03-07T00:53:19.174Z,5.83
2023-03-07T00:56:15.663Z,5.90
2023-03-07T00:59:01.094Z,5.80
2023-03-07T01:01:46.482Z,5.10
2023-03-07T01:04:33.132Z,6.27
2023-03-07T01:07:18.382Z,6.00
2023-03-07T01:10:04.633Z,5.00
2023-03-07T01:12:55.242Z,5.43
2023-03-07T01:15:40.903Z,4.60
2023-03-07T01:18:28.851Z,5.50
2023-03-07T01:21:26.215Z,4.77
2023-03-07T01:24:18.272Z,6.07
2023-03-07T01:27:06.060Z,5.60
2023-03-07T01:29:51.935Z,4.77
2023-03-07T01:32:37.236Z,5.57
2023-03-07T01:35:22.670Z,6.37
2023-03-07T01:38:12.048Z,5.90
2023-03-07T01:40:59.749Z,4.97
2023-03-07T01:43:48.321Z,6.10
2023-03-07T01:46:45.397Z,5.47
2023-03-07T01:49:35.677Z,5.10
2023-03-07T01:52:43.649Z,7.17
2023-03-07T01:55:34.517Z,6.70
2023-03-07T01:58:20.018Z,5.90
2023-03-07T02:01:10.164Z,7.53
2023-03-07T02:04:21.234Z,5.10
2023-03-07T02:07:15.690Z,6.60
2023-03-07T02:10:01.777Z,7.13
2023-03-07T02:12:51.882Z,6.07
2023-03-07T02:15:40.148Z,7.43
2023-03-07T02:18:28.981Z,6.43
2023-03-07T02:21:23.455Z,7.80
2023-03-07T02:24:29.080Z,8.30
2023-03-07T02:27:17.304Z,7.97
2023-03-07T02:33:07.239Z,7.67
2023-03-07T02:35:59.618Z,8.00
2023-03-07T02:45:00.706Z,9.03
2023-03-07T02:47:46.532Z,10.27
2023-03-07T02:50:31.888Z,7.97
2023-03-07T02:53:20.086Z,9.07
2023-03-07T02:56:11.655Z,9.10
2023-03-07T02:58:57.450Z,9.57
2023-03-07T03:01:43.415Z,9.33
2023-03-07T03:04:32.061Z,10.00
2023-03-07T03:07:20.979Z,9.13
2023-03-07T03:10:09.584Z,9.37
2023-03-07T03:12:57.570Z,8.97
2023-03-07T03:15:42.669Z,9.77
2023-03-07T03:18:29.298Z,9.33
2023-03-07T03:21:17.284Z,10.17
2023-03-07T03:24:07.060Z,9.10
2023-03-07T03:26:55.206Z,10.43
2023-03-07T03:29:43.561Z,9.90
2023-03-07T03:32:29.496Z,8.40
2023-03-07T03:35:15.916Z,10.10
2023-03-07T03:38:04.057Z,10.50
2023-03-07T03:40:49.594Z,9.60
2023-03-07T03:43:37.767Z,9.93
2023-03-07T03:46:23.196Z,11.73
2023-03-07T03:49:11.254Z,9.13
2023-03-07T03:51:56.860Z,9.40
2023-03-07T03:54:44.531Z,8.30
2023-03-07T03:57:32.196Z,9.27
2023-03-07T04:00:21.528Z,9.47
2023-03-07T04:03:07.077Z,11.20
2023-03-07T04:05:53.120Z,10.93
2023-03-07T04:08:40.400Z,8.83
2023-03-07T04:11:26.673Z,11.03
2023-03-07T04:14:12.069Z,9.07
2023-03-07T04:16:57.761Z,8.97
2023-03-07T04:19:43.362Z,9.37
2023-03-07T04:22:28.767Z,9.63
2023-03-07T04:25:14.952Z,9.33
2023-03-07T04:28:00.187Z,9.20
2023-03-07T04:30:52.529Z,9.80
2023-03-07T04:33:38.210Z,9.90
2023-03-07T04:36:24.482Z,9.03
2023-03-07T04:39:09.774Z,8.53
2023-03-07T04:41:57.531Z,8.83
2023-03-07T04:44:45.446Z,9.23
2023-03-07T04:47:32.857Z,10.13
2023-03-07T04:50:19.895Z,9.07
2023-03-07T04:53:05.041Z,10.23
2023-03-07T04:55:52.910Z,8.20
2023-03-07T04:58:38.531Z,7.90
2023-03-07T05:01:24.052Z,9.97
2023-03-07T05:04:09.806Z,8.80
2023-03-07T05:06:55.396Z,9.57
2023-03-07T05:09:40.581Z,8.40
2023-03-07T05:12:28.471Z,8.90
2023-03-07T05:15:16.395Z,8.87
2023-03-07T05:18:04.750Z,9.10
2023-03-07T05:20:50.373Z,9.20
2023-03-07T05:23:35.980Z,9.47
2023-03-07T05:26:23.306Z,8.33
2023-03-07T05:29:08.754Z,8.10
2023-03-07T05:31:58.812Z,8.43
2023-03-07T05:34:46.956Z,9.13
2023-03-07T05:37:32.661Z,9.10
2023-03-07T05:40:18.983Z,7.70
2023-03-07T05:43:05.404Z,9.10
2023-03-07T05:45:51.354Z,9.30
2023-03-07T05:48:37.010Z,9.17
2023-03-07T05:51:22.568Z,9.23
2023-03-07T05:54:07.761Z,8.80
2023-03-07T05:56:55.353Z,8.47
2023-03-07T05:59:40.596Z,9.30
2023-03-07T06:02:26.284Z,7.90
2023-03-07T06:05:11.809Z,8.53
2023-03-07T06:07:57.069Z,7.33
2023-03-07T06:10:48.829Z,8.87
2023-03-07T06:13:34.452Z,8.47
2023-03-07T06:16:19.954Z,7.40
2023-03-07T06:19:06.454Z,8.67
2023-03-07T06:21:54.395Z,7.40
2023-03-07T06:24:40.137Z,9.00
2023-03-07T06:27:29.067Z,9.30
2023-03-07T06:30:14.880Z,9.70
2023-03-07T06:33:00.699Z,9.40
2023-03-07T06:35:46.836Z,9.70
2023-03-07T06:38:32.183Z,8.60
2023-03-07T06:41:20.600Z,9.37
2023-03-07T06:44:08.465Z,9.70
2023-03-07T06:46:54.082Z,10.20
2023-03-07T06:49:41.473Z,9.00
2023-03-07T06:52:26.837Z,7.50
2023-03-07T06:55:14.477Z,8.00
2023-03-07T06:58:02.763Z,8.53
2023-03-07T07:00:50.290Z,8.77
2023-03-07T07:03:35.787Z,10.20
2023-03-07T07:06:21.320Z,7.80
2023-03-07T07:09:06.739Z,9.30
2023-03-07T07:11:54.744Z,8.07
2023-03-07T07:14:42.601Z,10.10
2023-03-07T07:17:29.575Z,7.77
2023-03-07T07:20:15.043Z,7.87
2023-03-07T07:23:00.682Z,8.90
2023-03-07T07:25:48.937Z,8.53
2023-03-07T07:28:34.826Z,8.50
2023-03-07T07:31:20.244Z,9.80
2023-03-07T07:34:05.773Z,9.07
2023-03-07T07:36:52.238Z,8.00
2023-03-07T07:39:40.780Z,7.90
2023-03-07T07:42:26.365Z,7.90
2023-03-07T07:45:12.444Z,7.93
2023-03-07T07:48:00.371Z,9.13
2023-03-07T07:50:46.988Z,7.53
2023-03-07T07:53:33.145Z,7.33
2023-03-07T07:56:18.295Z,6.83
2023-03-07T07:59:04.162Z,7.83
2023-03-07T08:01:52.401Z,6.60
2023-03-07T08:04:37.672Z,7.27
2023-03-07T08:07:23.462Z,7.90
2023-03-07T08:10:10.128Z,7.23
2023-03-07T08:12:55.818Z,6.73
2023-03-07T08:15:41.745Z,7.00
2023-03-07T08:18:27.115Z,5.80
2023-03-07T08:21:15.390Z,6.40
2023-03-07T08:24:01.459Z,7.50
2023-03-07T08:26:49.034Z,6.30
2023-03-07T08:29:35.305Z,5.80
2023-03-07T08:32:20.742Z,6.57
2023-03-07T08:35:06.898Z,6.87
2023-03-07T08:38:04.506Z,6.40
2023-03-07T08:40:49.823Z,6.30
2023-03-07T08:43:37.240Z,6.80
2023-03-07T08:46:23.410Z,6.67
2023-03-07T08:49:11.088Z,6.63
2023-03-07T08:51:56.937Z,6.20
2023-03-07T08:54:42.473Z,6.53
2023-03-07T08:57:30.074Z,6.30
2023-03-07T09:00:16.145Z,5.73
2023-03-07T09:03:01.685Z,5.73
2023-03-07T09:05:46.988Z,5.97
2023-03-07T09:08:33.536Z,6.30
2023-03-07T09:11:22.210Z,5.17
2023-03-07T09:14:08.185Z,5.73
2023-03-07T09:16:53.505Z,5.10
2023-03-07T09:19:38.770Z,5.70
2023-03-07T09:22:26.812Z,5.23
2023-03-07T09:25:15.320Z,5.40
2023-03-07T09:28:01.216Z,5.00
2023-03-07T09:30:46.578Z,5.17
2023-03-07T09:33:32.688Z,4.90
2023-03-07T09:36:20.856Z,5.60
2023-03-07T09:39:14.282Z,5.20
2023-03-07T09:42:13.525Z,5.83
2023-03-07T09:45:09.106Z,5.00
2023-03-07T09:48:09.980Z,4.50
2023-03-07T09:51:10.386Z,4.07
2023-03-07T09:54:04.794Z,5.37
2023-03-07T09:56:55.618Z,4.40
2023-03-07T09:59:53.930Z,4.33
2023-03-07T10:02:44.230Z,4.63
2023-03-07T10:05:37.865Z,4.70
2023-03-07T10:08:30.290Z,4.37
2023-03-07T10:11:29.515Z,3.80
2023-03-07T10:14:18.975Z,3.50
2023-03-07T10:17:23.411Z,4.57
2023-03-07T10:20:29.847Z,3.60
2023-03-07T10:23:33.508Z,4.00
2023-03-07T10:26:41.793Z,3.20
2023-03-07T10:29:34.159Z,4.13
2023-03-07T10:32:47.143Z,3.23
2023-03-07T10:35:41.397Z,2.77
2023-03-07T10:39:06.457Z,3.00
2023-03-07T10:41:52.987Z,2.27
2023-03-07T10:44:42.073Z,2.10
2023-03-07T10:47:29.269Z,1.60
2023-03-07T10:50:34.323Z,2.23
2023-03-07T10:53:25.282Z,2.10
2023-03-07T10:56:16.672Z,1.20
2023-03-07T10:59:04.204Z,1.17
2023-03-07T11:01:59.000Z,0.90
2023-03-07T11:04:46.941Z,1.13
2023-03-07T11:07:35.784Z,1.60
2023-03-07T11:10:38.938Z,1.70
2023-03-07T11:13:28.096Z,1.70
2023-03-07T11:16:20.770Z,1.47
2023-03-07T11:19:30.332Z,1.57
2023-03-07T11:22:35.833Z,1.37
2023-03-07T11:28:32.368Z,1.17
2023-03-07T11:31:36.452Z,1.60
2023-03-07T11:34:24.786Z,1.83
2023-03-07T11:37:31.587Z,1.53
2023-03-07T11:40:43.603Z,1.00
2023-03-07T11:43:37.969Z,1.23
2023-03-07T11:46:43.250Z,0.90
2023-03-07T11:49:58.931Z,1.07
2023-03-07T11:53:22.624Z,1.23
2023-03-07T11:56:21.533Z,1.10
2023-03-07T11:59:31.090Z,1.43
2023-03-07T12:02:35.146Z,1.77
2023-03-07T12:05:27.999Z,1.00
2023-03-07T12:08:35.003Z,1.10
2023-03-07T12:11:36.366Z,1.50
2023-03-07T12:14:27.816Z,1.10
2023-03-07T12:17:24.472Z,1.23
2023-03-07T12:20:42.918Z,1.07
2023-03-07T12:23:51.834Z,0.77
2023-03-07T12:26:43.061Z,0.97
2023-03-07T12:29:42.103Z,0.97
2023-03-07T12:32:29.335Z,1.03
2023-03-07T12:35:23.536Z,1.00
2023-03-07T12:38:39.053Z,0.70
2023-03-07T12:41:46.359Z,0.80
2023-03-07T12:44:43.555Z,0.90
2023-03-07T12:47:56.921Z,1.20
2023-03-07T12:51:07.028Z,1.10
2023-03-07T12:54:07.186Z,1.37
2023-03-07T12:57:04.828Z,0.80
2023-03-07T12:59:51.511Z,0.87
2023-03-07T13:02:44.630Z,1.00
2023-03-07T13:05:35.082Z,0.70
2023-03-07T13:08:23.725Z,1.23
2023-03-07T13:11:24.702Z,0.90
2023-03-07T13:14:30.818Z,0.80
2023-03-07T13:17:31.481Z,0.97
2023-03-07T13:20:17.598Z,0.93
2023-03-07T13:23:25.446Z,1.10
2023-03-07T13:26:12.593Z,1.00
2023-03-07T13:29:00.120Z,1.03
2023-03-07T13:31:45.610Z,1.00
2023-03-07T13:34:48.005Z,1.00
2023-03-07T13:38:05.142Z,0.90
2023-03-07T13:41:04.950Z,1.17
2023-03-07T13:43:55.837Z,0.80
2023-03-07T13:46:44.632Z,1.30
2023-03-07T13:49:38.856Z,1.37
2023-03-07T13:52:32.331Z,0.87
2023-03-07T13:55:23.251Z,1.07
2023-03-07T13:58:34.236Z,1.23
2023-03-07T14:01:44.513Z,0.73
2023-03-07T14:04:46.499Z,1.10
2023-03-07T14:07:36.926Z,0.90
2023-03-07T14:10:30.420Z,1.20
2023-03-07T14:13:43.404Z,1.27
2023-03-07T14:16:47.149Z,1.07
2023-03-07T14:20:09.506Z,1.10
2023-03-07T14:23:24.579Z,1.00
2023-03-07T14:26:16.251Z,1.20
2023-03-07T14:29:17.919Z,1.13
2023-03-07T14:32:03.715Z,1.00
2023-03-07T14:34:49.704Z,0.93
2023-03-07T14:37:39.009Z,0.90
2023-03-07T14:40:48.474Z,1.40
2023-03-07T14:43:48.937Z,1.30
2023-03-07T14:47:00.573Z,1.00
2023-03-07T14:50:15.302Z,1.00
2023-03-07T14:53:05.656Z,1.00
2023-03-07T14:55:53.995Z,0.60
2023-03-07T14:58:58.358Z,0.90
2023-03-07T15:01:43.589Z,0.87
2023-03-07T15:04:33.576Z,0.80
2023-03-07T15:07:22.170Z,0.87
2023-03-07T15:10:16.445Z,0.80
2023-03-07T15:13:05.825Z,1.00
2023-03-07T15:16:05.825Z,1.17
2023-03-07T15:18:58.181Z,1.13
2023-03-07T15:21:58.770Z,0.90
2023-03-07T15:24:46.615Z,0.80
2023-03-07T15:27:35.423Z,0.90
2023-03-07T15:30:38.333Z,0.93
2023-03-07T15:33:29.525Z,0.80
2023-03-07T15:36:19.285Z,0.83
2023-03-07T15:39:34.487Z,1.00
2023-03-07T15:42:22.890Z,1.00
2023-03-07T15:45:33.392Z,0.97
2023-03-07T15:48:43.387Z,1.20
2023-03-07T15:51:36.725Z,0.90
2023-03-07T15:54:29.469Z,0.97
2023-03-07T15:57:32.150Z,0.80
2023-03-07T16:00:29.954Z,0.97
2023-03-07T16:03:28.740Z,1.10
2023-03-07T16:06:44.646Z,1.30
2023-03-07T16:09:33.030Z,1.00
2023-03-07T16:12:21.874Z,0.90
2023-03-07T16:15:13.194Z,0.90
2023-03-07T16:18:00.769Z,1.10
2023-03-07T16:20:48.209Z,0.80
2023-03-07T16:23:34.118Z,1.10
2023-03-07T16:26:25.006Z,0.90
2023-03-07T16:29:22.389Z,0.83
2023-03-07T16:32:14.965Z,1.00
2023-03-07T16:35:00.632Z,0.80
2023-03-07T16:37:47.451Z,1.00
2023-03-07T16:40:33.273Z,1.20
2023-03-07T16:43:32.706Z,1.10
2023-03-07T16:46:21.226Z,1.07
2023-03-07T16:49:07.011Z,1.10
2023-03-07T16:52:05.142Z,1.03
2023-03-07T16:54:51.808Z,0.90
2023-03-07T16:57:42.701Z,1.33
2023-03-07T17:00:31.228Z,1.07
2023-03-07T17:03:17.693Z,1.17
2023-03-07T17:06:03.342Z,1.13
2023-03-07T17:08:52.965Z,1.17
2023-03-07T17:11:50.594Z,1.10
2023-03-07T17:14:36.157Z,1.03
2023-03-07T17:17:28.359Z,1.10
2023-03-07T17:20:22.968Z,0.90
2023-03-07T17:23:15.486Z,0.93
2023-03-07T17:26:00.896Z,1.13
2023-03-07T17:28:49.618Z,0.97
2023-03-07T17:31:37.238Z,0.90
2023-03-07T17:34:29.737Z,0.93
2023-03-07T17:37:15.566Z,1.37
2023-03-07T17:40:01.068Z,1.60
2023-03-07T17:42:49.923Z,1.23
2023-03-07T17:45:38.670Z,1.10
2023-03-07T17:48:24.387Z,1.30
2023-03-07T17:51:12.120Z,1.30
2023-03-07T17:53:57.754Z,1.57
2023-03-07T17:56:43.483Z,1.47
2023-03-07T17:59:31.960Z,1.40
2023-03-07T18:02:17.530Z,1.13
2023-03-07T18:05:02.894Z,1.20
2023-03-07T18:07:51.392Z,1.33
2023-03-07T18:10:37.011Z,1.07
2023-03-07T18:13:24.309Z,1.20
2023-03-07T18:16:15.048Z,1.20
2023-03-07T18:19:02.963Z,1.13
2023-03-07T18:21:51.656Z,1.30
2023-03-07T18:24:36.886Z,1.23
2023-03-07T18:27:26.993Z,1.30
2023-03-07T18:30:13.189Z,1.53
2023-03-07T18:32:58.685Z,1.30
2023-03-07T18:35:49.286Z,1.03
2023-03-07T18:38:35.232Z,1.20
2023-03-07T18:41:23.337Z,1.10
2023-03-07T18:44:11.043Z,1.03
2023-03-07T18:46:56.636Z,2.00
2023-03-07T18:49:41.841Z,1.50
2023-03-07T18:52:29.505Z,1.20
2023-03-07T18:55:14.850Z,1.30
2023-03-07T18:58:02.370Z,1.20
2023-03-07T19:00:49.891Z,1.67
2023-03-07T19:03:35.568Z,1.03
2023-03-07T19:06:25.718Z,1.50
2023-03-07T19:09:17.480Z,0.80
2023-03-07T19:12:03.313Z,1.30
2023-03-07T19:14:50.852Z,1.10
2023-03-07T19:17:41.845Z,1.30
2023-03-07T19:26:43.455Z,1.10
2023-03-07T19:29:29.293Z,1.47
2023-03-07T19:32:14.788Z,1.70
2023-03-07T19:35:00.427Z,1.40
2023-03-07T19:37:45.741Z,1.50
2023-03-07T19:40:31.246Z,2.17
2023-03-07T19:43:16.839Z,1.67
2023-03-07T19:46:08.773Z,1.77
2023-03-07T19:48:54.691Z,1.20
2023-03-07T19:51:40.560Z,2.13
2023-03-07T19:54:28.538Z,2.10
2023-03-07T19:57:16.062Z,1.60
2023-03-07T20:00:01.516Z,2.37
2023-03-07T20:02:47.287Z,1.83
2023-03-07T20:05:32.744Z,2.00
2023-03-07T20:08:20.362Z,1.80
2023-03-07T20:11:26.720Z,1.60
2023-03-07T20:14:13.181Z,1.70
2023-03-07T20:16:59.508Z,1.83
2023-03-07T20:19:45.649Z,2.03
2023-03-07T20:22:31.526Z,2.03
2023-03-07T20:25:17.856Z,2.03
2023-03-07T20:28:06.429Z,2.17
2023-03-07T20:30:53.261Z,2.70
2023-03-07T20:33:44.827Z,2.37
2023-03-07T20:36:34.361Z,2.83
2023-03-07T20:39:22.467Z,2.30
2023-03-07T20:42:08.147Z,2.63
2023-03-07T20:44:54.211Z,2.73
2023-03-07T20:47:45.317Z,2.40
2023-03-07T20:50:30.877Z,2.20
2023-03-07T20:53:16.637Z,2.63
2023-03-07T20:56:04.682Z,2.60
2023-03-07T20:58:50.379Z,2.33
2023-03-07T21:01:38.959Z,2.27
2023-03-07T21:04:27.397Z,2.17
2023-03-07T21:07:14.799Z,2.23
2023-03-07T21:10:00.312Z,2.67
2023-03-07T21:12:45.966Z,2.87
2023-03-07T21:15:32.028Z,2.40
2023-03-07T21:18:17.387Z,2.50
2023-03-07T21:21:05.534Z,3.20
2023-03-07T21:23:51.635Z,2.37
2023-03-07T21:26:39.422Z,2.37
2023-03-07T21:29:26.916Z,2.60
2023-03-07T21:32:12.137Z,2.10
2023-03-07T21:34:58.543Z,2.20
2023-03-07T21:37:44.152Z,2.70
2023-03-07T21:40:29.958Z,2.00
2023-03-07T21:43:15.697Z,1.90
2023-03-07T21:46:07.030Z,2.43
2023-03-07T21:48:52.825Z,2.07
2023-03-07T21:51:38.740Z,2.03
2023-03-07T21:54:24.538Z,1.93
2023-03-07T21:57:12.480Z,2.70
2023-03-07T22:00:00.441Z,2.20
2023-03-07T22:02:45.988Z,2.23
2023-03-07T22:05:32.225Z,2.00
2023-03-07T22:08:18.118Z,2.00
2023-03-07T22:11:07.457Z,1.47
2023-03-07T22:13:52.751Z,1.60
2023-03-07T22:16:38.698Z,1.43
2023-03-07T22:19:24.297Z,1.73
2023-03-07T22:22:09.950Z,2.57
2023-03-07T22:24:58.287Z,1.43
2023-03-07T22:27:45.311Z,1.67
2023-03-07T22:30:30.380Z,1.40
2023-03-07T22:33:16.575Z,2.03
2023-03-07T22:36:05.472Z,1.37
2023-03-07T22:38:55.366Z,1.50
2023-03-07T22:41:41.456Z,1.63
2023-03-07T22:44:27.239Z,1.40
2023-03-07T22:47:12.672Z,1.40
2023-03-07T22:49:58.468Z,1.20
2023-03-07T22:52:44.076Z,1.30
2023-03-07T22:55:29.496Z,0.87
2023-03-07T22:58:17.924Z,1.30
2023-03-07T23:01:20.836Z,1.30
2023-03-07T23:04:08.628Z,1.00
2023-03-07T23:06:56.621Z,1.40
2023-03-07T23:09:42.301Z,1.67
2023-03-07T23:12:27.509Z,1.60
2023-03-07T23:15:12.896Z,1.10
2023-03-07T23:18:00.728Z,1.10
2023-03-07T23:20:46.088Z,1.13
2023-03-07T23:23:37.078Z,1.07
2023-03-07T23:26:29.361Z,1.20
2023-03-07T23:29:17.085Z,1.30
2023-03-07T23:32:03.735Z,1.53
2023-03-07T23:34:49.450Z,1.37
2023-03-07T23:37:35.096Z,1.20
2023-03-07T23:40:21.362Z,1.00
2023-03-07T23:43:07.381Z,1.10
2023-03-07T23:45:53.243Z,1.57
2023-03-07T23:48:38.723Z,1.23
2023-03-07T23:51:24.907Z,1.03
2023-03-07T23:54:10.498Z,1.30
2023-03-07T23:56:55.747Z,0.83
2023-03-07T23:59:40.974Z,1.47
